sensor_id;sensor_type;location;lat;lon;timestamp;temperature;humidity
52107;DHT22;38105;52.968;5.974;2022-12-18T00:00:53;-3.50;99.90
52107;DHT22;38105;52.968;5.974;2022-12-18T00:03:19;-3.60;99.90
52107;DHT22;38105;52.968;5.974;2022-12-18T00:05:49;-3.80;99.90
52107;DHT22;38105;52.968;5.974;2022-12-18T00:08:15;-3.80;99.90
52107;DHT22;38105;52.968;5.974;2022-12-18T00:10:41;-3.90;99.90
52107;DHT22;38105;52.968;5.974;2022-12-18T00:13:07;-3.80;99.90
52107;DHT22;38105;52.968;5.974;2022-12-18T00:15:36;-3.90;99.90
52107;DHT22;38105;52.968;5.974;2022-12-18T00:18:02;-3.70;99.90
52107;DHT22;38105;52.968;5.974;2022-12-18T00:20:28;-3.70;99.90
52107;DHT22;38105;52.968;5.974;2022-12-18T00:22:54;-3.70;99.90
52107;DHT22;38105;52.968;5.974;2022-12-18T00:25:20;-4.00;99.90
52107;DHT22;38105;52.968;5.974;2022-12-18T00:27:46;-3.70;99.90
52107;DHT22;38105;52.968;5.974;2022-12-18T00:30:12;-3.80;99.90
52107;DHT22;38105;52.968;5.974;2022-12-18T00:32:37;-3.90;99.90
52107;DHT22;38105;52.968;5.974;2022-12-18T00:35:04;-3.80;99.90
52107;DHT22;38105;52.968;5.974;2022-12-18T00:37:30;-3.80;99.90
52107;DHT22;38105;52.968;5.974;2022-12-18T00:39:55;-3.90;99.90
52107;DHT22;38105;52.968;5.974;2022-12-18T00:42:21;-3.80;99.90
52107;DHT22;38105;52.968;5.974;2022-12-18T00:45:06;-4.10;99.90
52107;DHT22;38105;52.968;5.974;2022-12-18T00:47:32;-3.90;99.90
52107;DHT22;38105;52.968;5.974;2022-12-18T00:49:57;-3.90;99.90
52107;DHT22;38105;52.968;5.974;2022-12-18T00:52:23;-4.00;99.90
52107;DHT22;38105;52.968;5.974;2022-12-18T00:54:48;-3.90;99.90
52107;DHT22;38105;52.968;5.974;2022-12-18T00:57:14;-3.80;99.90
52107;DHT22;38105;52.968;5.974;2022-12-18T00:59:40;-4.20;99.90
52107;DHT22;38105;52.968;5.974;2022-12-18T01:02:05;-4.20;99.90
52107;DHT22;38105;52.968;5.974;2022-12-18T01:04:32;-4.00;99.90
52107;DHT22;38105;52.968;5.974;2022-12-18T01:06:58;-4.20;99.90
52107;DHT22;38105;52.968;5.974;2022-12-18T01:09:23;-4.30;99.90
52107;DHT22;38105;52.968;5.974;2022-12-18T01:11:49;-4.10;99.90
52107;DHT22;38105;52.968;5.974;2022-12-18T01:14:15;-4.10;99.90
52107;DHT22;38105;52.968;5.974;2022-12-18T01:16:40;-4.30;99.90
52107;DHT22;38105;52.968;5.974;2022-12-18T01:19:06;-4.10;99.90
52107;DHT22;38105;52.968;5.974;2022-12-18T01:21:32;-4.20;99.90
52107;DHT22;38105;52.968;5.974;2022-12-18T01:23:57;-4.10;99.90
52107;DHT22;38105;52.968;5.974;2022-12-18T01:26:24;-4.40;99.90
52107;DHT22;38105;52.968;5.974;2022-12-18T01:28:50;-4.20;99.90
52107;DHT22;38105;52.968;5.974;2022-12-18T01:31:20;-4.00;99.90
52107;DHT22;38105;52.968;5.974;2022-12-18T01:33:50;-4.30;99.90
52107;DHT22;38105;52.968;5.974;2022-12-18T01:36:21;-4.30;99.90
52107;DHT22;38105;52.968;5.974;2022-12-18T01:38:47;-4.10;99.90
52107;DHT22;38105;52.968;5.974;2022-12-18T01:41:15;-4.30;99.90
52107;DHT22;38105;52.968;5.974;2022-12-18T01:43:55;-4.20;99.90
52107;DHT22;38105;52.968;5.974;2022-12-18T01:46:26;-4.10;99.90
52107;DHT22;38105;52.968;5.974;2022-12-18T01:49:00;-4.30;99.90
52107;DHT22;38105;52.968;5.974;2022-12-18T01:51:27;-4.10;99.90
52107;DHT22;38105;52.968;5.974;2022-12-18T01:53:55;-4.10;99.90
52107;DHT22;38105;52.968;5.974;2022-12-18T01:56:21;-4.10;99.90
52107;DHT22;38105;52.968;5.974;2022-12-18T01:58:52;-4.10;99.90
52107;DHT22;38105;52.968;5.974;2022-12-18T02:01:21;-4.30;99.90
52107;DHT22;38105;52.968;5.974;2022-12-18T02:03:48;-4.40;99.90
52107;DHT22;38105;52.968;5.974;2022-12-18T02:15:00;-4.50;99.90
52107;DHT22;38105;52.968;5.974;2022-12-18T02:20:28;-4.40;99.90
52107;DHT22;38105;52.968;5.974;2022-12-18T02:28:25;-4.60;99.90
52107;DHT22;38105;52.968;5.974;2022-12-18T02:30:56;-4.40;99.90
52107;DHT22;38105;52.968;5.974;2022-12-18T02:33:27;-4.50;99.90
52107;DHT22;38105;52.968;5.974;2022-12-18T02:35:54;-4.50;99.90
52107;DHT22;38105;52.968;5.974;2022-12-18T02:38:21;-4.70;99.90
52107;DHT22;38105;52.968;5.974;2022-12-18T02:40:48;-4.70;99.90
52107;DHT22;38105;52.968;5.974;2022-12-18T02:43:15;-4.30;99.90
52107;DHT22;38105;52.968;5.974;2022-12-18T02:48:19;-4.50;99.90
52107;DHT22;38105;52.968;5.974;2022-12-18T02:51:03;-4.80;99.90
52107;DHT22;38105;52.968;5.974;2022-12-18T02:53:35;-4.70;99.90
52107;DHT22;38105;52.968;5.974;2022-12-18T02:56:22;-4.70;99.90
52107;DHT22;38105;52.968;5.974;2022-12-18T02:59:00;-4.60;99.90
52107;DHT22;38105;52.968;5.974;2022-12-18T03:06:47;-4.60;99.90
52107;DHT22;38105;52.968;5.974;2022-12-18T03:09:21;-4.70;99.90
52107;DHT22;38105;52.968;5.974;2022-12-18T03:11:53;-4.90;99.90
52107;DHT22;38105;52.968;5.974;2022-12-18T03:14:40;-4.70;99.90
52107;DHT22;38105;52.968;5.974;2022-12-18T03:17:13;-4.70;99.90
52107;DHT22;38105;52.968;5.974;2022-12-18T03:19:42;-5.00;99.90
52107;DHT22;38105;52.968;5.974;2022-12-18T03:22:09;-4.80;99.90
52107;DHT22;38105;52.968;5.974;2022-12-18T03:24:36;-4.80;99.90
52107;DHT22;38105;52.968;5.974;2022-12-18T03:27:09;-4.80;99.90
52107;DHT22;38105;52.968;5.974;2022-12-18T03:29:40;-5.00;99.90
52107;DHT22;38105;52.968;5.974;2022-12-18T03:32:11;-4.90;99.90
52107;DHT22;38105;52.968;5.974;2022-12-18T03:34:42;-5.20;99.90
52107;DHT22;38105;52.968;5.974;2022-12-18T03:37:09;-5.00;99.90
52107;DHT22;38105;52.968;5.974;2022-12-18T03:39:35;-5.20;99.90
52107;DHT22;38105;52.968;5.974;2022-12-18T03:42:11;-5.10;99.90
52107;DHT22;38105;52.968;5.974;2022-12-18T03:47:40;-5.20;99.90
52107;DHT22;38105;52.968;5.974;2022-12-18T03:50:25;-5.50;99.90
52107;DHT22;38105;52.968;5.974;2022-12-18T03:53:18;-5.50;99.90
52107;DHT22;38105;52.968;5.974;2022-12-18T03:55:48;-5.40;99.90
52107;DHT22;38105;52.968;5.974;2022-12-18T03:58:17;-5.40;99.90
52107;DHT22;38105;52.968;5.974;2022-12-18T04:00:45;-5.60;99.90
52107;DHT22;38105;52.968;5.974;2022-12-18T04:03:14;-5.60;99.90
52107;DHT22;38105;52.968;5.974;2022-12-18T04:05:42;-5.40;99.90
52107;DHT22;38105;52.968;5.974;2022-12-18T04:08:08;-5.60;99.90
52107;DHT22;38105;52.968;5.974;2022-12-18T04:10:37;-5.50;99.90
52107;DHT22;38105;52.968;5.974;2022-12-18T04:13:03;-5.70;99.90
52107;DHT22;38105;52.968;5.974;2022-12-18T04:15:29;-5.50;99.90
52107;DHT22;38105;52.968;5.974;2022-12-18T04:17:54;-5.60;99.90
52107;DHT22;38105;52.968;5.974;2022-12-18T04:20:20;-5.50;99.90
52107;DHT22;38105;52.968;5.974;2022-12-18T04:22:46;-5.50;99.90
52107;DHT22;38105;52.968;5.974;2022-12-18T04:25:12;-5.80;99.90
52107;DHT22;38105;52.968;5.974;2022-12-18T04:27:37;-5.70;99.90
52107;DHT22;38105;52.968;5.974;2022-12-18T04:30:03;-5.80;99.90
52107;DHT22;38105;52.968;5.974;2022-12-18T04:32:29;-5.90;99.90
52107;DHT22;38105;52.968;5.974;2022-12-18T04:34:55;-5.90;99.90
52107;DHT22;38105;52.968;5.974;2022-12-18T04:37:20;-5.90;99.90
52107;DHT22;38105;52.968;5.974;2022-12-18T04:39:47;-5.80;99.90
52107;DHT22;38105;52.968;5.974;2022-12-18T04:42:12;-6.00;99.90
52107;DHT22;38105;52.968;5.974;2022-12-18T04:44:38;-6.00;99.90
52107;DHT22;38105;52.968;5.974;2022-12-18T04:47:03;-6.00;99.90
52107;DHT22;38105;52.968;5.974;2022-12-18T04:49:29;-5.80;99.90
52107;DHT22;38105;52.968;5.974;2022-12-18T04:51:55;-5.90;99.90
52107;DHT22;38105;52.968;5.974;2022-12-18T04:54:20;-5.90;99.90
52107;DHT22;38105;52.968;5.974;2022-12-18T04:56:46;-5.90;99.90
52107;DHT22;38105;52.968;5.974;2022-12-18T04:59:12;-6.60;99.90
52107;DHT22;38105;52.968;5.974;2022-12-18T05:01:38;-6.00;99.90
52107;DHT22;38105;52.968;5.974;2022-12-18T05:04:04;-5.90;99.90
52107;DHT22;38105;52.968;5.974;2022-12-18T05:06:29;-5.90;99.90
52107;DHT22;38105;52.968;5.974;2022-12-18T05:08:55;-6.10;99.90
52107;DHT22;38105;52.968;5.974;2022-12-18T05:11:21;-6.10;99.90
52107;DHT22;38105;52.968;5.974;2022-12-18T05:13:47;-6.00;99.90
52107;DHT22;38105;52.968;5.974;2022-12-18T05:16:13;-6.10;99.90
52107;DHT22;38105;52.968;5.974;2022-12-18T05:18:39;-6.00;99.90
52107;DHT22;38105;52.968;5.974;2022-12-18T05:21:05;-6.10;99.90
52107;DHT22;38105;52.968;5.974;2022-12-18T05:23:31;-6.20;99.90
52107;DHT22;38105;52.968;5.974;2022-12-18T05:36:53;-6.20;99.90
52107;DHT22;38105;52.968;5.974;2022-12-18T05:39:19;-6.30;99.90
52107;DHT22;38105;52.968;5.974;2022-12-18T05:41:45;-6.20;99.90
52107;DHT22;38105;52.968;5.974;2022-12-18T05:44:10;-6.40;99.90
52107;DHT22;38105;52.968;5.974;2022-12-18T05:46:36;-6.00;99.90
52107;DHT22;38105;52.968;5.974;2022-12-18T05:49:02;-5.70;99.90
52107;DHT22;38105;52.968;5.974;2022-12-18T05:51:27;-6.40;99.90
52107;DHT22;38105;52.968;5.974;2022-12-18T05:53:53;-6.30;99.90
52107;DHT22;38105;52.968;5.974;2022-12-18T05:56:21;-6.30;99.90
52107;DHT22;38105;52.968;5.974;2022-12-18T05:58:47;-6.30;99.90
52107;DHT22;38105;52.968;5.974;2022-12-18T06:01:19;-6.20;99.90
52107;DHT22;38105;52.968;5.974;2022-12-18T06:03:46;-6.20;99.90
52107;DHT22;38105;52.968;5.974;2022-12-18T06:06:22;-6.20;99.90
52107;DHT22;38105;52.968;5.974;2022-12-18T06:08:49;-6.30;99.90
52107;DHT22;38105;52.968;5.974;2022-12-18T06:11:26;-6.20;99.90
52107;DHT22;38105;52.968;5.974;2022-12-18T06:13:53;-6.40;99.90
52107;DHT22;38105;52.968;5.974;2022-12-18T06:16:19;-6.40;99.90
52107;DHT22;38105;52.968;5.974;2022-12-18T06:18:45;-6.40;99.90
52107;DHT22;38105;52.968;5.974;2022-12-18T06:21:10;-6.30;99.90
52107;DHT22;38105;52.968;5.974;2022-12-18T06:23:36;-6.30;99.90
52107;DHT22;38105;52.968;5.974;2022-12-18T06:26:06;-6.30;99.90
52107;DHT22;38105;52.968;5.974;2022-12-18T06:28:31;-6.30;99.90
52107;DHT22;38105;52.968;5.974;2022-12-18T06:30:57;-6.30;99.90
52107;DHT22;38105;52.968;5.974;2022-12-18T06:33:26;-6.40;99.90
52107;DHT22;38105;52.968;5.974;2022-12-18T06:35:52;-6.30;99.90
52107;DHT22;38105;52.968;5.974;2022-12-18T06:38:18;-6.40;99.90
52107;DHT22;38105;52.968;5.974;2022-12-18T06:40:43;-6.40;99.90
52107;DHT22;38105;52.968;5.974;2022-12-18T06:43:09;-6.50;99.90
52107;DHT22;38105;52.968;5.974;2022-12-18T06:45:35;-6.40;99.90
52107;DHT22;38105;52.968;5.974;2022-12-18T06:48:00;-6.30;99.90
52107;DHT22;38105;52.968;5.974;2022-12-18T06:50:26;-6.00;99.90
52107;DHT22;38105;52.968;5.974;2022-12-18T06:52:52;-6.30;99.90
52107;DHT22;38105;52.968;5.974;2022-12-18T06:55:18;-6.40;99.90
52107;DHT22;38105;52.968;5.974;2022-12-18T06:57:43;-6.30;99.90
52107;DHT22;38105;52.968;5.974;2022-12-18T07:00:09;-6.30;99.90
52107;DHT22;38105;52.968;5.974;2022-12-18T07:02:35;-6.60;99.90
52107;DHT22;38105;52.968;5.974;2022-12-18T07:05:01;-6.30;99.90
52107;DHT22;38105;52.968;5.974;2022-12-18T07:07:27;-6.80;99.90
52107;DHT22;38105;52.968;5.974;2022-12-18T07:09:52;-6.30;99.90
52107;DHT22;38105;52.968;5.974;2022-12-18T07:12:18;-6.30;99.90
52107;DHT22;38105;52.968;5.974;2022-12-18T07:14:44;-6.30;99.90
52107;DHT22;38105;52.968;5.974;2022-12-18T07:17:09;-6.30;99.90
52107;DHT22;38105;52.968;5.974;2022-12-18T07:19:35;-6.30;99.90
52107;DHT22;38105;52.968;5.974;2022-12-18T07:22:01;-6.20;99.90
52107;DHT22;38105;52.968;5.974;2022-12-18T07:24:27;-6.30;99.90
52107;DHT22;38105;52.968;5.974;2022-12-18T07:26:53;-6.30;99.90
52107;DHT22;38105;52.968;5.974;2022-12-18T07:29:19;-6.20;99.90
52107;DHT22;38105;52.968;5.974;2022-12-18T07:31:45;-6.20;99.90
52107;DHT22;38105;52.968;5.974;2022-12-18T07:34:12;-6.10;99.90
52107;DHT22;38105;52.968;5.974;2022-12-18T07:36:38;-6.10;99.90
52107;DHT22;38105;52.968;5.974;2022-12-18T07:39:03;-6.00;99.90
52107;DHT22;38105;52.968;5.974;2022-12-18T07:41:29;-5.30;99.90
52107;DHT22;38105;52.968;5.974;2022-12-18T07:43:55;-6.00;99.90
52107;DHT22;38105;52.968;5.974;2022-12-18T07:46:20;-5.90;99.90
52107;DHT22;38105;52.968;5.974;2022-12-18T07:48:46;-5.90;99.90
52107;DHT22;38105;52.968;5.974;2022-12-18T07:51:12;-5.80;99.90
52107;DHT22;38105;52.968;5.974;2022-12-18T07:53:39;-5.70;99.90
52107;DHT22;38105;52.968;5.974;2022-12-18T07:56:07;-5.70;99.90
52107;DHT22;38105;52.968;5.974;2022-12-18T07:58:35;-5.70;99.90
52107;DHT22;38105;52.968;5.974;2022-12-18T08:03:30;-5.60;99.90
52107;DHT22;38105;52.968;5.974;2022-12-18T08:06:03;-5.50;99.90
52107;DHT22;38105;52.968;5.974;2022-12-18T08:08:30;-5.50;99.90
52107;DHT22;38105;52.968;5.974;2022-12-18T08:10:56;-5.40;99.90
52107;DHT22;38105;52.968;5.974;2022-12-18T08:13:23;-5.30;99.90
52107;DHT22;38105;52.968;5.974;2022-12-18T08:15:59;-5.30;99.90
52107;DHT22;38105;52.968;5.974;2022-12-18T08:18:25;-5.20;99.90
52107;DHT22;38105;52.968;5.974;2022-12-18T08:20:54;-5.10;99.90
52107;DHT22;38105;52.968;5.974;2022-12-18T08:23:21;-5.20;99.90
52107;DHT22;38105;52.968;5.974;2022-12-18T08:36:50;-4.50;99.90
52107;DHT22;38105;52.968;5.974;2022-12-18T08:39:16;-4.40;99.90
52107;DHT22;38105;52.968;5.974;2022-12-18T08:41:41;-4.10;99.90
52107;DHT22;38105;52.968;5.974;2022-12-18T08:44:07;-4.00;99.90
52107;DHT22;38105;52.968;5.974;2022-12-18T08:46:52;-3.80;99.90
52107;DHT22;38105;52.968;5.974;2022-12-18T08:49:18;-3.70;99.90
52107;DHT22;38105;52.968;5.974;2022-12-18T08:51:43;-3.60;99.90
52107;DHT22;38105;52.968;5.974;2022-12-18T08:54:12;-3.50;99.90
52107;DHT22;38105;52.968;5.974;2022-12-18T08:56:39;-3.40;99.90
52107;DHT22;38105;52.968;5.974;2022-12-18T08:59:04;-3.30;99.90
52107;DHT22;38105;52.968;5.974;2022-12-18T09:01:30;-3.10;99.90
52107;DHT22;38105;52.968;5.974;2022-12-18T09:03:56;-3.10;99.90
52107;DHT22;38105;52.968;5.974;2022-12-18T09:06:22;-3.10;99.90
52107;DHT22;38105;52.968;5.974;2022-12-18T09:08:48;-3.20;99.90
52107;DHT22;38105;52.968;5.974;2022-12-18T09:11:20;-3.20;99.90
52107;DHT22;38105;52.968;5.974;2022-12-18T09:13:46;-3.20;99.90
52107;DHT22;38105;52.968;5.974;2022-12-18T09:16:11;-3.10;99.90
52107;DHT22;38105;52.968;5.974;2022-12-18T09:18:37;-3.10;99.90
52107;DHT22;38105;52.968;5.974;2022-12-18T09:21:15;-3.00;99.90
52107;DHT22;38105;52.968;5.974;2022-12-18T09:23:41;-2.90;99.90
52107;DHT22;38105;52.968;5.974;2022-12-18T09:26:07;-2.80;99.90
52107;DHT22;38105;52.968;5.974;2022-12-18T09:28:34;-2.90;99.90
52107;DHT22;38105;52.968;5.974;2022-12-18T09:31:04;-2.90;99.90
52107;DHT22;38105;52.968;5.974;2022-12-18T09:33:30;-2.90;99.90
52107;DHT22;38105;52.968;5.974;2022-12-18T09:35:56;-2.90;99.90
52107;DHT22;38105;52.968;5.974;2022-12-18T09:38:22;-2.90;99.90
52107;DHT22;38105;52.968;5.974;2022-12-18T09:40:51;-2.80;99.90
52107;DHT22;38105;52.968;5.974;2022-12-18T09:43:42;-2.80;99.90
52107;DHT22;38105;52.968;5.974;2022-12-18T09:46:15;-2.80;99.90
52107;DHT22;38105;52.968;5.974;2022-12-18T09:48:45;-2.80;99.90
52107;DHT22;38105;52.968;5.974;2022-12-18T09:51:19;-2.80;99.90
52107;DHT22;38105;52.968;5.974;2022-12-18T09:53:52;-2.80;99.90
52107;DHT22;38105;52.968;5.974;2022-12-18T09:56:19;-2.70;99.90
52107;DHT22;38105;52.968;5.974;2022-12-18T09:58:57;-2.60;99.90
52107;DHT22;38105;52.968;5.974;2022-12-18T10:01:23;-2.50;99.90
52107;DHT22;38105;52.968;5.974;2022-12-18T10:03:50;-2.60;99.90
52107;DHT22;38105;52.968;5.974;2022-12-18T10:06:37;-2.70;99.90
52107;DHT22;38105;52.968;5.974;2022-12-18T10:12:16;-2.90;99.90
52107;DHT22;38105;52.968;5.974;2022-12-18T10:14:51;-2.90;99.90
52107;DHT22;38105;52.968;5.974;2022-12-18T10:20:05;-2.90;99.90
52107;DHT22;38105;52.968;5.974;2022-12-18T10:25:18;-2.80;99.90
52107;DHT22;38105;52.968;5.974;2022-12-18T10:27:45;-2.70;99.90
52107;DHT22;38105;52.968;5.974;2022-12-18T10:30:20;-2.70;99.90
52107;DHT22;38105;52.968;5.974;2022-12-18T10:32:46;-2.70;99.90
52107;DHT22;38105;52.968;5.974;2022-12-18T10:35:24;-2.70;99.90
52107;DHT22;38105;52.968;5.974;2022-12-18T10:45:14;-2.60;99.90
52107;DHT22;38105;52.968;5.974;2022-12-18T10:47:48;-2.60;99.90
52107;DHT22;38105;52.968;5.974;2022-12-18T10:50:29;-2.60;99.90
52107;DHT22;38105;52.968;5.974;2022-12-18T10:53:04;-2.60;99.90
52107;DHT22;38105;52.968;5.974;2022-12-18T10:55:37;-2.60;99.90
52107;DHT22;38105;52.968;5.974;2022-12-18T10:58:24;-2.60;99.90
52107;DHT22;38105;52.968;5.974;2022-12-18T11:01:08;-2.50;99.90
52107;DHT22;38105;52.968;5.974;2022-12-18T11:06:12;-2.50;99.90
52107;DHT22;38105;52.968;5.974;2022-12-18T11:08:40;-2.40;99.90
52107;DHT22;38105;52.968;5.974;2022-12-18T11:11:19;-2.40;99.90
52107;DHT22;38105;52.968;5.974;2022-12-18T11:14:03;-2.40;99.90
52107;DHT22;38105;52.968;5.974;2022-12-18T11:16:34;-2.40;99.90
52107;DHT22;38105;52.968;5.974;2022-12-18T11:19:32;-2.30;99.90
52107;DHT22;38105;52.968;5.974;2022-12-18T11:21:59;-2.30;99.90
52107;DHT22;38105;52.968;5.974;2022-12-18T11:24:35;-2.30;99.90
52107;DHT22;38105;52.968;5.974;2022-12-18T11:27:05;-2.20;99.90
52107;DHT22;38105;52.968;5.974;2022-12-18T11:29:41;-2.20;99.90
52107;DHT22;38105;52.968;5.974;2022-12-18T11:32:29;-2.10;99.90
52107;DHT22;38105;52.968;5.974;2022-12-18T11:35:21;-2.00;99.90
52107;DHT22;38105;52.968;5.974;2022-12-18T11:37:54;-2.00;99.90
52107;DHT22;38105;52.968;5.974;2022-12-18T11:40:33;-1.90;99.90
52107;DHT22;38105;52.968;5.974;2022-12-18T11:45:55;-1.80;99.90
52107;DHT22;38105;52.968;5.974;2022-12-18T11:48:30;-1.70;99.90
52107;DHT22;38105;52.968;5.974;2022-12-18T11:50:59;-1.70;99.90
52107;DHT22;38105;52.968;5.974;2022-12-18T11:53:27;-1.70;99.90
52107;DHT22;38105;52.968;5.974;2022-12-18T12:09:45;-1.50;99.90
52107;DHT22;38105;52.968;5.974;2022-12-18T12:12:17;-1.50;99.90
52107;DHT22;38105;52.968;5.974;2022-12-18T12:14:59;-1.50;99.90
52107;DHT22;38105;52.968;5.974;2022-12-18T12:17:34;-1.50;99.90
52107;DHT22;38105;52.968;5.974;2022-12-18T12:23:17;-1.30;99.90
52107;DHT22;38105;52.968;5.974;2022-12-18T12:26:25;-1.40;99.90
52107;DHT22;38105;52.968;5.974;2022-12-18T12:34:09;-1.30;99.90
52107;DHT22;38105;52.968;5.974;2022-12-18T12:37:01;-1.20;99.90
52107;DHT22;38105;52.968;5.974;2022-12-18T12:39:32;-1.20;99.90
52107;DHT22;38105;52.968;5.974;2022-12-18T12:42:01;-1.20;99.90
52107;DHT22;38105;52.968;5.974;2022-12-18T12:44:53;-1.10;99.90
52107;DHT22;38105;52.968;5.974;2022-12-18T12:47:30;-1.20;99.90
52107;DHT22;38105;52.968;5.974;2022-12-18T12:49:59;-0.90;99.90
52107;DHT22;38105;52.968;5.974;2022-12-18T12:52:52;-1.00;99.90
52107;DHT22;38105;52.968;5.974;2022-12-18T12:55:22;-0.90;99.90
52107;DHT22;38105;52.968;5.974;2022-12-18T12:58:07;-0.70;99.90
52107;DHT22;38105;52.968;5.974;2022-12-18T13:00:44;-1.20;99.90
52107;DHT22;38105;52.968;5.974;2022-12-18T13:03:30;-1.20;99.90
52107;DHT22;38105;52.968;5.974;2022-12-18T13:06:09;-1.00;99.90
52107;DHT22;38105;52.968;5.974;2022-12-18T13:08:58;-1.10;99.90
52107;DHT22;38105;52.968;5.974;2022-12-18T13:11:42;-0.80;99.90
52107;DHT22;38105;52.968;5.974;2022-12-18T13:17:30;-0.90;99.90
52107;DHT22;38105;52.968;5.974;2022-12-18T13:20:04;-1.20;99.90
52107;DHT22;38105;52.968;5.974;2022-12-18T13:22:38;-1.00;99.90
52107;DHT22;38105;52.968;5.974;2022-12-18T13:28:03;-1.10;99.90
52107;DHT22;38105;52.968;5.974;2022-12-18T13:41:21;-0.90;99.90
52107;DHT22;38105;52.968;5.974;2022-12-18T13:43:48;-1.20;99.90
52107;DHT22;38105;52.968;5.974;2022-12-18T13:46:46;-1.20;99.90
52107;DHT22;38105;52.968;5.974;2022-12-18T13:51:44;-0.50;99.90
52107;DHT22;38105;52.968;5.974;2022-12-18T13:54:36;-0.90;99.90
52107;DHT22;38105;52.968;5.974;2022-12-18T13:57:04;-1.00;99.90
52107;DHT22;38105;52.968;5.974;2022-12-18T13:59:39;-1.20;99.90
52107;DHT22;38105;52.968;5.974;2022-12-18T14:02:15;-1.20;99.90
52107;DHT22;38105;52.968;5.974;2022-12-18T14:04:40;-1.20;99.90
52107;DHT22;38105;52.968;5.974;2022-12-18T14:09:42;-0.90;99.90
52107;DHT22;38105;52.968;5.974;2022-12-18T14:12:24;-1.30;99.90
52107;DHT22;38105;52.968;5.974;2022-12-18T14:17:50;-1.00;99.90
52107;DHT22;38105;52.968;5.974;2022-12-18T14:20:17;-1.20;99.90
52107;DHT22;38105;52.968;5.974;2022-12-18T14:22:48;-1.30;99.90
52107;DHT22;38105;52.968;5.974;2022-12-18T14:25:20;-0.90;99.90
52107;DHT22;38105;52.968;5.974;2022-12-18T14:30:36;-1.30;99.90
52107;DHT22;38105;52.968;5.974;2022-12-18T14:33:11;-1.10;99.90
52107;DHT22;38105;52.968;5.974;2022-12-18T14:35:40;-1.10;99.90
52107;DHT22;38105;52.968;5.974;2022-12-18T14:40:44;-0.90;99.90
52107;DHT22;38105;52.968;5.974;2022-12-18T14:43:10;-1.40;99.90
52107;DHT22;38105;52.968;5.974;2022-12-18T14:45:44;-1.00;99.90
52107;DHT22;38105;52.968;5.974;2022-12-18T14:48:17;-1.20;99.90
52107;DHT22;38105;52.968;5.974;2022-12-18T14:50:44;-1.10;99.90
52107;DHT22;38105;52.968;5.974;2022-12-18T14:53:23;-1.20;99.90
52107;DHT22;38105;52.968;5.974;2022-12-18T14:55:51;-1.50;99.90
52107;DHT22;38105;52.968;5.974;2022-12-18T14:58:18;-1.30;99.90
52107;DHT22;38105;52.968;5.974;2022-12-18T15:00:44;-1.60;99.90
52107;DHT22;38105;52.968;5.974;2022-12-18T15:03:09;-1.30;99.90
52107;DHT22;38105;52.968;5.974;2022-12-18T15:05:35;-1.20;99.90
52107;DHT22;38105;52.968;5.974;2022-12-18T15:08:02;-1.40;99.90
52107;DHT22;38105;52.968;5.974;2022-12-18T15:10:31;-1.10;99.90
52107;DHT22;38105;52.968;5.974;2022-12-18T15:20:54;-1.10;99.90
52107;DHT22;38105;52.968;5.974;2022-12-18T15:23:23;-1.40;99.90
52107;DHT22;38105;52.968;5.974;2022-12-18T15:25:58;-1.00;99.90
52107;DHT22;38105;52.968;5.974;2022-12-18T15:28:28;-1.00;99.90
52107;DHT22;38105;52.968;5.974;2022-12-18T15:33:46;-1.10;99.90
52107;DHT22;38105;52.968;5.974;2022-12-18T15:36:28;-1.00;99.90
52107;DHT22;38105;52.968;5.974;2022-12-18T15:38:56;-1.20;99.90
52107;DHT22;38105;52.968;5.974;2022-12-18T15:41:23;-1.30;99.90
52107;DHT22;38105;52.968;5.974;2022-12-18T15:43:50;-1.00;99.90
52107;DHT22;38105;52.968;5.974;2022-12-18T15:46:24;-0.80;99.90
52107;DHT22;38105;52.968;5.974;2022-12-18T15:48:52;-1.10;99.90
52107;DHT22;38105;52.968;5.974;2022-12-18T15:51:28;-0.90;99.90
52107;DHT22;38105;52.968;5.974;2022-12-18T15:53:56;-0.90;99.90
52107;DHT22;38105;52.968;5.974;2022-12-18T15:56:22;-0.80;99.90
52107;DHT22;38105;52.968;5.974;2022-12-18T15:59:24;-0.90;99.90
52107;DHT22;38105;52.968;5.974;2022-12-18T16:01:51;-0.70;99.90
52107;DHT22;38105;52.968;5.974;2022-12-18T16:04:19;-0.60;99.90
52107;DHT22;38105;52.968;5.974;2022-12-18T16:06:46;-0.90;99.90
52107;DHT22;38105;52.968;5.974;2022-12-18T16:09:12;-1.00;99.90
52107;DHT22;38105;52.968;5.974;2022-12-18T16:11:39;-0.90;99.90
52107;DHT22;38105;52.968;5.974;2022-12-18T16:14:25;-1.00;99.90
52107;DHT22;38105;52.968;5.974;2022-12-18T16:16:56;-0.70;99.90
52107;DHT22;38105;52.968;5.974;2022-12-18T16:19:22;-1.00;99.90
52107;DHT22;38105;52.968;5.974;2022-12-18T16:21:50;-0.70;99.90
52107;DHT22;38105;52.968;5.974;2022-12-18T16:24:20;-0.80;99.90
52107;DHT22;38105;52.968;5.974;2022-12-18T16:26:50;-1.40;99.90
52107;DHT22;38105;52.968;5.974;2022-12-18T16:29:19;-0.90;99.90
52107;DHT22;38105;52.968;5.974;2022-12-18T16:31:56;-0.80;99.90
52107;DHT22;38105;52.968;5.974;2022-12-18T16:34:24;-0.80;99.90
52107;DHT22;38105;52.968;5.974;2022-12-18T16:36:56;-0.90;99.90
52107;DHT22;38105;52.968;5.974;2022-12-18T16:39:23;-0.80;99.90
52107;DHT22;38105;52.968;5.974;2022-12-18T16:41:50;-0.90;99.90
52107;DHT22;38105;52.968;5.974;2022-12-18T16:44:16;-0.70;99.90
52107;DHT22;38105;52.968;5.974;2022-12-18T16:46:41;-0.60;99.90
52107;DHT22;38105;52.968;5.974;2022-12-18T16:49:12;-0.40;99.90
52107;DHT22;38105;52.968;5.974;2022-12-18T16:51:38;-1.00;99.90
52107;DHT22;38105;52.968;5.974;2022-12-18T16:54:03;-0.60;99.90
52107;DHT22;38105;52.968;5.974;2022-12-18T16:56:30;-0.60;99.90
52107;DHT22;38105;52.968;5.974;2022-12-18T16:58:58;-1.10;99.90
52107;DHT22;38105;52.968;5.974;2022-12-18T17:01:25;-0.90;99.90
52107;DHT22;38105;52.968;5.974;2022-12-18T17:03:52;-0.90;99.90
52107;DHT22;38105;52.968;5.974;2022-12-18T17:06:18;-0.90;99.90
52107;DHT22;38105;52.968;5.974;2022-12-18T17:08:44;-1.00;99.90
52107;DHT22;38105;52.968;5.974;2022-12-18T17:11:10;-0.80;99.90
52107;DHT22;38105;52.968;5.974;2022-12-18T17:13:35;-0.90;99.90
52107;DHT22;38105;52.968;5.974;2022-12-18T17:16:02;-0.60;99.90
52107;DHT22;38105;52.968;5.974;2022-12-18T17:18:29;-0.70;99.90
52107;DHT22;38105;52.968;5.974;2022-12-18T17:21:01;-0.90;99.90
52107;DHT22;38105;52.968;5.974;2022-12-18T17:23:28;-0.70;99.90
52107;DHT22;38105;52.968;5.974;2022-12-18T17:25:58;-0.70;99.90
52107;DHT22;38105;52.968;5.974;2022-12-18T17:28:25;-0.90;99.90
52107;DHT22;38105;52.968;5.974;2022-12-18T17:30:52;-0.60;99.90
52107;DHT22;38105;52.968;5.974;2022-12-18T17:33:18;-0.70;99.90
52107;DHT22;38105;52.968;5.974;2022-12-18T17:35:44;-0.70;99.90
52107;DHT22;38105;52.968;5.974;2022-12-18T17:38:10;-0.40;99.90
52107;DHT22;38105;52.968;5.974;2022-12-18T17:40:36;-0.70;99.90
52107;DHT22;38105;52.968;5.974;2022-12-18T17:43:01;-0.60;99.90
52107;DHT22;38105;52.968;5.974;2022-12-18T17:45:27;-0.70;99.90
52107;DHT22;38105;52.968;5.974;2022-12-18T17:47:53;-0.60;99.90
52107;DHT22;38105;52.968;5.974;2022-12-18T17:50:18;-0.50;99.90
52107;DHT22;38105;52.968;5.974;2022-12-18T17:52:44;-0.50;99.90
52107;DHT22;38105;52.968;5.974;2022-12-18T17:55:10;-0.40;99.90
52107;DHT22;38105;52.968;5.974;2022-12-18T17:57:36;-0.40;99.90
52107;DHT22;38105;52.968;5.974;2022-12-18T18:00:03;-0.60;99.90
52107;DHT22;38105;52.968;5.974;2022-12-18T18:02:29;-0.40;99.90